sensor_id;sensor_type;location;lat;lon;timestamp;P1;durP1;ratioP1;P2;durP2;ratioP2
37069;SDS011;22984;48.862;9.320;2022-11-20T00:02:12;44.15;;;20.00;;
37069;SDS011;22984;48.862;9.320;2022-11-20T00:04:38;44.00;;;19.70;;
37069;SDS011;22984;48.862;9.320;2022-11-20T00:07:04;33.05;;;18.50;;
37069;SDS011;22984;48.862;9.320;2022-11-20T00:09:30;34.42;;;19.70;;
37069;SDS011;22984;48.862;9.320;2022-11-20T00:11:56;34.38;;;20.10;;
37069;SDS011;22984;48.862;9.320;2022-11-20T00:14:22;39.45;;;19.90;;
37069;SDS011;22984;48.862;9.320;2022-11-20T00:16:48;36.78;;;19.63;;
37069;SDS011;22984;48.862;9.320;2022-11-20T00:19:14;36.20;;;19.77;;
37069;SDS011;22984;48.862;9.320;2022-11-20T00:21:40;46.90;;;21.13;;
37069;SDS011;22984;48.862;9.320;2022-11-20T00:24:10;40.70;;;19.30;;
37069;SDS011;22984;48.862;9.320;2022-11-20T00:26:36;53.22;;;20.65;;
37069;SDS011;22984;48.862;9.320;2022-11-20T00:29:02;52.03;;;20.52;;
37069;SDS011;22984;48.862;9.320;2022-11-20T00:31:28;51.30;;;20.60;;
37069;SDS011;22984;48.862;9.320;2022-11-20T00:33:55;62.67;;;21.55;;
37069;SDS011;22984;48.862;9.320;2022-11-20T00:36:25;70.38;;;22.67;;
37069;SDS011;22984;48.862;9.320;2022-11-20T00:38:52;50.15;;;21.75;;
37069;SDS011;22984;48.862;9.320;2022-11-20T00:41:18;56.25;;;22.27;;
37069;SDS011;22984;48.862;9.320;2022-11-20T00:43:44;101.32;;;24.40;;
37069;SDS011;22984;48.862;9.320;2022-11-20T00:46:12;62.30;;;22.38;;
37069;SDS011;22984;48.862;9.320;2022-11-20T00:48:38;161.85;;;25.27;;
37069;SDS011;22984;48.862;9.320;2022-11-20T00:51:05;90.75;;;24.95;;
37069;SDS011;22984;48.862;9.320;2022-11-20T00:53:31;77.20;;;23.92;;
37069;SDS011;22984;48.862;9.320;2022-11-20T00:55:58;92.13;;;26.33;;
37069;SDS011;22984;48.862;9.320;2022-11-20T00:58:25;80.67;;;23.77;;
37069;SDS011;22984;48.862;9.320;2022-11-20T01:00:54;62.75;;;23.50;;
37069;SDS011;22984;48.862;9.320;2022-11-20T01:03:25;52.17;;;22.13;;
37069;SDS011;22984;48.862;9.320;2022-11-20T01:05:51;60.13;;;24.48;;
37069;SDS011;22984;48.862;9.320;2022-11-20T01:08:17;48.03;;;23.10;;
37069;SDS011;22984;48.862;9.320;2022-11-20T01:10:43;52.20;;;23.67;;
37069;SDS011;22984;48.862;9.320;2022-11-20T01:13:09;50.75;;;22.58;;
37069;SDS011;22984;48.862;9.320;2022-11-20T01:15:53;48.50;;;22.70;;
37069;SDS011;22984;48.862;9.320;2022-11-20T01:18:19;46.80;;;21.90;;
37069;SDS011;22984;48.862;9.320;2022-11-20T01:20:45;45.58;;;21.05;;
37069;SDS011;22984;48.862;9.320;2022-11-20T01:23:11;49.95;;;22.67;;
37069;SDS011;22984;48.862;9.320;2022-11-20T01:25:37;50.22;;;22.60;;
37069;SDS011;22984;48.862;9.320;2022-11-20T01:28:03;56.65;;;24.50;;
37069;SDS011;22984;48.862;9.320;2022-11-20T01:30:29;50.63;;;22.00;;
37069;SDS011;22984;48.862;9.320;2022-11-20T01:32:55;56.38;;;23.60;;
37069;SDS011;22984;48.862;9.320;2022-11-20T01:35:21;49.13;;;22.40;;
37069;SDS011;22984;48.862;9.320;2022-11-20T01:37:47;57.97;;;23.73;;
37069;SDS011;22984;48.862;9.320;2022-11-20T01:40:15;59.70;;;24.27;;
37069;SDS011;22984;48.862;9.320;2022-11-20T01:42:45;74.57;;;27.08;;
37069;SDS011;22984;48.862;9.320;2022-11-20T01:48:45;61.80;;;23.65;;
37069;SDS011;22984;48.862;9.320;2022-11-20T01:51:15;61.22;;;24.67;;
37069;SDS011;22984;48.862;9.320;2022-11-20T01:53:43;58.40;;;24.77;;
37069;SDS011;22984;48.862;9.320;2022-11-20T01:56:10;59.03;;;24.63;;
37069;SDS011;22984;48.862;9.320;2022-11-20T01:58:40;48.20;;;22.43;;
37069;SDS011;22984;48.862;9.320;2022-11-20T02:01:07;52.65;;;22.67;;
37069;SDS011;22984;48.862;9.320;2022-11-20T02:03:34;55.22;;;22.92;;
37069;SDS011;22984;48.862;9.320;2022-11-20T02:06:04;53.10;;;23.85;;
37069;SDS011;22984;48.862;9.320;2022-11-20T02:08:32;40.83;;;21.35;;
37069;SDS011;22984;48.862;9.320;2022-11-20T02:10:59;22.70;;;13.73;;
37069;SDS011;22984;48.862;9.320;2022-11-20T02:13:25;23.65;;;15.07;;
37069;SDS011;22984;48.862;9.320;2022-11-20T02:18:39;21.88;;;13.70;;
37069;SDS011;22984;48.862;9.320;2022-11-20T02:21:17;22.77;;;14.73;;
37069;SDS011;22984;48.862;9.320;2022-11-20T02:24:01;29.95;;;17.00;;
37069;SDS011;22984;48.862;9.320;2022-11-20T02:26:28;23.77;;;16.33;;
37069;SDS011;22984;48.862;9.320;2022-11-20T02:28:55;27.48;;;16.40;;
37069;SDS011;22984;48.862;9.320;2022-11-20T02:31:22;30.90;;;16.70;;
37069;SDS011;22984;48.862;9.320;2022-11-20T02:33:53;23.27;;;15.20;;
37069;SDS011;22984;48.862;9.320;2022-11-20T02:36:19;23.48;;;16.00;;
37069;SDS011;22984;48.862;9.320;2022-11-20T02:38:45;23.52;;;14.73;;
37069;SDS011;22984;48.862;9.320;2022-11-20T02:41:11;21.75;;;14.52;;
37069;SDS011;22984;48.862;9.320;2022-11-20T02:43:37;18.52;;;13.30;;
37069;SDS011;22984;48.862;9.320;2022-11-20T02:46:03;18.83;;;12.45;;
37069;SDS011;22984;48.862;9.320;2022-11-20T02:48:32;14.02;;;9.88;;
37069;SDS011;22984;48.862;9.320;2022-11-20T02:50:58;14.52;;;10.70;;
37069;SDS011;22984;48.862;9.320;2022-11-20T02:53:24;12.18;;;9.82;;
37069;SDS011;22984;48.862;9.320;2022-11-20T02:55:50;10.32;;;9.27;;
37069;SDS011;22984;48.862;9.320;2022-11-20T02:58:16;11.60;;;9.73;;
37069;SDS011;22984;48.862;9.320;2022-11-20T03:00:44;10.38;;;9.35;;
37069;SDS011;22984;48.862;9.320;2022-11-20T03:03:10;10.95;;;8.70;;
37069;SDS011;22984;48.862;9.320;2022-11-20T03:05:36;9.43;;;8.52;;
37069;SDS011;22984;48.862;9.320;2022-11-20T03:08:02;9.90;;;8.90;;
37069;SDS011;22984;48.862;9.320;2022-11-20T03:10:28;8.70;;;7.82;;
37069;SDS011;22984;48.862;9.320;2022-11-20T03:12:54;9.45;;;7.40;;
37069;SDS011;22984;48.862;9.320;2022-11-20T03:15:21;7.57;;;6.90;;
37069;SDS011;22984;48.862;9.320;2022-11-20T03:17:47;8.25;;;7.47;;
37069;SDS011;22984;48.862;9.320;2022-11-20T03:20:13;7.20;;;6.60;;
37069;SDS011;22984;48.862;9.320;2022-11-20T03:22:39;7.22;;;6.43;;
37069;SDS011;22984;48.862;9.320;2022-11-20T03:25:05;8.80;;;7.90;;
37069;SDS011;22984;48.862;9.320;2022-11-20T03:27:33;8.82;;;6.93;;
37069;SDS011;22984;48.862;9.320;2022-11-20T03:29:59;6.90;;;6.22;;
37069;SDS011;22984;48.862;9.320;2022-11-20T03:32:25;6.35;;;5.75;;
37069;SDS011;22984;48.862;9.320;2022-11-20T03:34:51;7.18;;;6.57;;
37069;SDS011;22984;48.862;9.320;2022-11-20T03:37:17;6.87;;;5.53;;
37069;SDS011;22984;48.862;9.320;2022-11-20T03:39:43;5.97;;;5.38;;
37069;SDS011;22984;48.862;9.320;2022-11-20T03:42:09;6.25;;;5.63;;
37069;SDS011;22984;48.862;9.320;2022-11-20T03:44:54;5.70;;;5.20;;
37069;SDS011;22984;48.862;9.320;2022-11-20T03:47:20;6.07;;;5.32;;
37069;SDS011;22984;48.862;9.320;2022-11-20T03:49:46;6.95;;;5.13;;
37069;SDS011;22984;48.862;9.320;2022-11-20T03:52:12;4.97;;;4.57;;
37069;SDS011;22984;48.862;9.320;2022-11-20T03:54:38;5.05;;;4.20;;
37069;SDS011;22984;48.862;9.320;2022-11-20T03:57:04;4.23;;;3.90;;
37069;SDS011;22984;48.862;9.320;2022-11-20T03:59:30;6.65;;;4.20;;
37069;SDS011;22984;48.862;9.320;2022-11-20T04:01:56;6.15;;;4.30;;
37069;SDS011;22984;48.862;9.320;2022-11-20T04:04:22;4.05;;;3.65;;
37069;SDS011;22984;48.862;9.320;2022-11-20T04:06:48;5.22;;;3.50;;
37069;SDS011;22984;48.862;9.320;2022-11-20T04:09:14;5.30;;;4.20;;
37069;SDS011;22984;48.862;9.320;2022-11-20T04:11:40;6.47;;;4.30;;
37069;SDS011;22984;48.862;9.320;2022-11-20T04:14:11;4.38;;;3.88;;
37069;SDS011;22984;48.862;9.320;2022-11-20T04:16:38;4.95;;;3.50;;
37069;SDS011;22984;48.862;9.320;2022-11-20T04:19:05;4.43;;;3.40;;
37069;SDS011;22984;48.862;9.320;2022-11-20T04:21:31;4.20;;;3.00;;
37069;SDS011;22984;48.862;9.320;2022-11-20T04:23:57;3.38;;;3.08;;
37069;SDS011;22984;48.862;9.320;2022-11-20T04:26:24;4.00;;;2.90;;
37069;SDS011;22984;48.862;9.320;2022-11-20T04:28:51;3.47;;;3.17;;
37069;SDS011;22984;48.862;9.320;2022-11-20T04:31:18;3.00;;;2.80;;
37069;SDS011;22984;48.862;9.320;2022-11-20T04:33:44;3.67;;;2.75;;
37069;SDS011;22984;48.862;9.320;2022-11-20T04:36:12;5.80;;;3.20;;
37069;SDS011;22984;48.862;9.320;2022-11-20T04:38:38;3.30;;;3.10;;
37069;SDS011;22984;48.862;9.320;2022-11-20T04:41:06;2.88;;;2.67;;
37069;SDS011;22984;48.862;9.320;2022-11-20T04:43:33;5.38;;;2.90;;
37069;SDS011;22984;48.862;9.320;2022-11-20T04:45:59;6.50;;;3.20;;
37069;SDS011;22984;48.862;9.320;2022-11-20T04:48:26;5.40;;;3.55;;
37069;SDS011;22984;48.862;9.320;2022-11-20T04:50:53;5.30;;;3.17;;
37069;SDS011;22984;48.862;9.320;2022-11-20T04:53:19;2.78;;;2.58;;
37069;SDS011;22984;48.862;9.320;2022-11-20T04:55:45;3.90;;;2.72;;
37069;SDS011;22984;48.862;9.320;2022-11-20T04:58:12;3.65;;;2.70;;
37069;SDS011;22984;48.862;9.320;2022-11-20T05:00:38;4.30;;;2.92;;
37069;SDS011;22984;48.862;9.320;2022-11-20T05:03:04;3.50;;;2.80;;
37069;SDS011;22984;48.862;9.320;2022-11-20T05:05:30;4.10;;;3.10;;
37069;SDS011;22984;48.862;9.320;2022-11-20T05:07:56;3.50;;;2.75;;
37069;SDS011;22984;48.862;9.320;2022-11-20T05:10:23;2.92;;;2.72;;
37069;SDS011;22984;48.862;9.320;2022-11-20T05:12:49;3.13;;;2.92;;
37069;SDS011;22984;48.862;9.320;2022-11-20T05:15:15;3.23;;;2.80;;
37069;SDS011;22984;48.862;9.320;2022-11-20T05:17:46;4.22;;;3.30;;
37069;SDS011;22984;48.862;9.320;2022-11-20T05:20:12;3.38;;;3.08;;
37069;SDS011;22984;48.862;9.320;2022-11-20T05:22:38;3.35;;;3.05;;
37069;SDS011;22984;48.862;9.320;2022-11-20T05:25:04;3.92;;;2.85;;
37069;SDS011;22984;48.862;9.320;2022-11-20T05:27:30;3.15;;;2.85;;
37069;SDS011;22984;48.862;9.320;2022-11-20T05:29:56;3.10;;;2.90;;
37069;SDS011;22984;48.862;9.320;2022-11-20T05:32:22;4.07;;;3.10;;
37069;SDS011;22984;48.862;9.320;2022-11-20T05:34:50;3.20;;;3.00;;
37069;SDS011;22984;48.862;9.320;2022-11-20T05:37:16;4.25;;;3.85;;
37069;SDS011;22984;48.862;9.320;2022-11-20T05:39:42;3.22;;;2.92;;
37069;SDS011;22984;48.862;9.320;2022-11-20T05:42:08;4.95;;;3.25;;
37069;SDS011;22984;48.862;9.320;2022-11-20T05:44:52;3.53;;;3.23;;
37069;SDS011;22984;48.862;9.320;2022-11-20T05:47:18;5.15;;;3.92;;
37069;SDS011;22984;48.862;9.320;2022-11-20T05:49:44;6.53;;;3.85;;
37069;SDS011;22984;48.862;9.320;2022-11-20T05:52:10;4.25;;;3.80;;
37069;SDS011;22984;48.862;9.320;2022-11-20T05:54:36;4.38;;;3.95;;
37069;SDS011;22984;48.862;9.320;2022-11-20T05:57:03;3.10;;;2.90;;
37069;SDS011;22984;48.862;9.320;2022-11-20T05:59:29;3.58;;;3.28;;
37069;SDS011;22984;48.862;9.320;2022-11-20T06:01:55;4.05;;;3.65;;
37069;SDS011;22984;48.862;9.320;2022-11-20T06:04:21;3.38;;;3.08;;
37069;SDS011;22984;48.862;9.320;2022-11-20T06:06:47;3.10;;;2.78;;
37069;SDS011;22984;48.862;9.320;2022-11-20T06:09:13;3.13;;;2.80;;
37069;SDS011;22984;48.862;9.320;2022-11-20T06:11:39;4.05;;;3.08;;
37069;SDS011;22984;48.862;9.320;2022-11-20T06:14:05;3.85;;;2.72;;
37069;SDS011;22984;48.862;9.320;2022-11-20T06:16:31;6.82;;;3.50;;
37069;SDS011;22984;48.862;9.320;2022-11-20T06:18:57;3.00;;;2.67;;
37069;SDS011;22984;48.862;9.320;2022-11-20T06:21:23;3.05;;;2.40;;
37069;SDS011;22984;48.862;9.320;2022-11-20T06:23:49;3.90;;;3.08;;
37069;SDS011;22984;48.862;9.320;2022-11-20T06:26:20;3.10;;;2.30;;
37069;SDS011;22984;48.862;9.320;2022-11-20T06:28:47;3.70;;;2.60;;
37069;SDS011;22984;48.862;9.320;2022-11-20T06:31:14;2.45;;;2.17;;
37069;SDS011;22984;48.862;9.320;2022-11-20T06:33:40;3.08;;;2.42;;
37069;SDS011;22984;48.862;9.320;2022-11-20T06:36:06;2.83;;;2.53;;
37069;SDS011;22984;48.862;9.320;2022-11-20T06:38:32;3.58;;;3.20;;
37069;SDS011;22984;48.862;9.320;2022-11-20T06:40:58;4.80;;;3.13;;
37069;SDS011;22984;48.862;9.320;2022-11-20T06:43:24;5.68;;;3.40;;
37069;SDS011;22984;48.862;9.320;2022-11-20T06:45:54;3.28;;;2.65;;
37069;SDS011;22984;48.862;9.320;2022-11-20T06:48:21;2.90;;;2.33;;
37069;SDS011;22984;48.862;9.320;2022-11-20T06:50:47;4.50;;;3.22;;
37069;SDS011;22984;48.862;9.320;2022-11-20T06:53:13;5.72;;;3.67;;
37069;SDS011;22984;48.862;9.320;2022-11-20T06:55:43;5.57;;;2.93;;
37069;SDS011;22984;48.862;9.320;2022-11-20T06:58:09;2.85;;;2.50;;
37069;SDS011;22984;48.862;9.320;2022-11-20T07:00:35;3.70;;;3.40;;
37069;SDS011;22984;48.862;9.320;2022-11-20T07:03:05;3.25;;;2.70;;
37069;SDS011;22984;48.862;9.320;2022-11-20T07:05:31;4.85;;;4.45;;
37069;SDS011;22984;48.862;9.320;2022-11-20T07:07:57;3.35;;;2.63;;
37069;SDS011;22984;48.862;9.320;2022-11-20T07:10:23;2.30;;;2.20;;
37069;SDS011;22984;48.862;9.320;2022-11-20T07:12:52;3.00;;;2.65;;
37069;SDS011;22984;48.862;9.320;2022-11-20T07:15:19;2.05;;;1.95;;
37069;SDS011;22984;48.862;9.320;2022-11-20T07:17:45;3.15;;;2.80;;
37069;SDS011;22984;48.862;9.320;2022-11-20T07:20:12;4.40;;;3.00;;
37069;SDS011;22984;48.862;9.320;2022-11-20T07:22:38;2.60;;;2.40;;
37069;SDS011;22984;48.862;9.320;2022-11-20T07:25:05;3.13;;;2.50;;
37069;SDS011;22984;48.862;9.320;2022-11-20T07:27:31;2.92;;;2.22;;
37069;SDS011;22984;48.862;9.320;2022-11-20T07:29:57;4.93;;;3.10;;
37069;SDS011;22984;48.862;9.320;2022-11-20T07:32:23;3.97;;;3.58;;
37069;SDS011;22984;48.862;9.320;2022-11-20T07:34:49;3.10;;;2.90;;
37069;SDS011;22984;48.862;9.320;2022-11-20T07:37:15;4.38;;;3.33;;
37069;SDS011;22984;48.862;9.320;2022-11-20T07:39:42;2.53;;;2.33;;
37069;SDS011;22984;48.862;9.320;2022-11-20T07:42:08;4.03;;;3.45;;
37069;SDS011;22984;48.862;9.320;2022-11-20T07:44:34;3.05;;;2.80;;
37069;SDS011;22984;48.862;9.320;2022-11-20T07:47:00;4.00;;;2.67;;
37069;SDS011;22984;48.862;9.320;2022-11-20T07:49:26;4.93;;;2.25;;
37069;SDS011;22984;48.862;9.320;2022-11-20T07:51:53;2.92;;;2.72;;
37069;SDS011;22984;48.862;9.320;2022-11-20T07:54:19;5.73;;;3.00;;
37069;SDS011;22984;48.862;9.320;2022-11-20T07:56:46;3.10;;;2.80;;
37069;SDS011;22984;48.862;9.320;2022-11-20T07:59:12;4.35;;;2.88;;
37069;SDS011;22984;48.862;9.320;2022-11-20T08:01:38;3.45;;;2.97;;
37069;SDS011;22984;48.862;9.320;2022-11-20T08:04:04;2.55;;;2.28;;
37069;SDS011;22984;48.862;9.320;2022-11-20T08:06:30;2.83;;;2.63;;
37069;SDS011;22984;48.862;9.320;2022-11-20T08:08:57;3.90;;;3.50;;
37069;SDS011;22984;48.862;9.320;2022-11-20T08:11:23;3.20;;;2.60;;
37069;SDS011;22984;48.862;9.320;2022-11-20T08:14:07;2.58;;;2.38;;
37069;SDS011;22984;48.862;9.320;2022-11-20T08:16:36;3.58;;;3.20;;
37069;SDS011;22984;48.862;9.320;2022-11-20T08:19:03;2.72;;;2.38;;
37069;SDS011;22984;48.862;9.320;2022-11-20T08:21:29;2.50;;;2.30;;
37069;SDS011;22984;48.862;9.320;2022-11-20T08:23:56;2.58;;;2.38;;
37069;SDS011;22984;48.862;9.320;2022-11-20T08:26:23;3.13;;;2.85;;
37069;SDS011;22984;48.862;9.320;2022-11-20T08:28:49;3.05;;;2.58;;
37069;SDS011;22984;48.862;9.320;2022-11-20T08:31:15;2.60;;;2.35;;
37069;SDS011;22984;48.862;9.320;2022-11-20T08:33:41;2.60;;;2.40;;
37069;SDS011;22984;48.862;9.320;2022-11-20T08:36:07;2.75;;;2.45;;
37069;SDS011;22984;48.862;9.320;2022-11-20T08:38:33;2.78;;;2.53;;
37069;SDS011;22984;48.862;9.320;2022-11-20T08:40:59;2.80;;;2.60;;
37069;SDS011;22984;48.862;9.320;2022-11-20T08:43:44;2.10;;;1.83;;
37069;SDS011;22984;48.862;9.320;2022-11-20T08:46:11;3.05;;;2.05;;
37069;SDS011;22984;48.862;9.320;2022-11-20T08:48:37;1.80;;;1.70;;
37069;SDS011;22984;48.862;9.320;2022-11-20T08:51:03;3.70;;;1.75;;
37069;SDS011;22984;48.862;9.320;2022-11-20T08:53:29;3.00;;;1.63;;
37069;SDS011;22984;48.862;9.320;2022-11-20T08:55:56;4.05;;;1.52;;
37069;SDS011;22984;48.862;9.320;2022-11-20T08:58:23;2.30;;;1.60;;
37069;SDS011;22984;48.862;9.320;2022-11-20T09:00:49;1.95;;;1.80;;
37069;SDS011;22984;48.862;9.320;2022-11-20T09:03:15;1.80;;;1.70;;
37069;SDS011;22984;48.862;9.320;2022-11-20T09:05:41;1.33;;;1.23;;
37069;SDS011;22984;48.862;9.320;2022-11-20T09:08:07;3.25;;;1.45;;
37069;SDS011;22984;48.862;9.320;2022-11-20T09:10:33;1.67;;;1.20;;
37069;SDS011;22984;48.862;9.320;2022-11-20T09:13:00;1.27;;;1.15;;
37069;SDS011;22984;48.862;9.320;2022-11-20T09:15:26;3.22;;;1.20;;
37069;SDS011;22984;48.862;9.320;2022-11-20T09:17:53;1.33;;;1.20;;
37069;SDS011;22984;48.862;9.320;2022-11-20T09:20:19;1.57;;;1.30;;
37069;SDS011;22984;48.862;9.320;2022-11-20T09:22:45;2.50;;;1.20;;
37069;SDS011;22984;48.862;9.320;2022-11-20T09:25:11;2.15;;;1.60;;
37069;SDS011;22984;48.862;9.320;2022-11-20T09:27:37;2.72;;;1.15;;
37069;SDS011;22984;48.862;9.320;2022-11-20T09:30:04;1.90;;;1.00;;
37069;SDS011;22984;48.862;9.320;2022-11-20T09:32:30;0.75;;;0.50;;
37069;SDS011;22984;48.862;9.320;2022-11-20T09:34:56;1.23;;;0.50;;
37069;SDS011;22984;48.862;9.320;2022-11-20T09:37:22;0.57;;;0.40;;
37069;SDS011;22984;48.862;9.320;2022-11-20T09:39:48;0.82;;;0.38;;
37069;SDS011;22984;48.862;9.320;2022-11-20T09:42:47;0.80;;;0.40;;
37069;SDS011;22984;48.862;9.320;2022-11-20T09:55:25;0.82;;;0.30;;
37069;SDS011;22984;48.862;9.320;2022-11-20T09:57:51;1.35;;;0.40;;
37069;SDS011;22984;48.862;9.320;2022-11-20T10:00:18;0.68;;;0.43;;
37069;SDS011;22984;48.862;9.320;2022-11-20T10:07:54;1.95;;;0.40;;
37069;SDS011;22984;48.862;9.320;2022-11-20T10:18:42;0.60;;;0.30;;
37069;SDS011;22984;48.862;9.320;2022-11-20T10:21:20;0.50;;;0.50;;
37069;SDS011;22984;48.862;9.320;2022-11-20T10:33:54;3.10;;;0.50;;
37069;SDS011;22984;48.862;9.320;2022-11-20T10:36:37;1.00;;;0.50;;
37069;SDS011;22984;48.862;9.320;2022-11-20T10:42:03;1.27;;;0.70;;
37069;SDS011;22984;48.862;9.320;2022-11-20T10:44:31;0.70;;;0.60;;
37069;SDS011;22984;48.862;9.320;2022-11-20T10:47:17;2.30;;;1.17;;
37069;SDS011;22984;48.862;9.320;2022-11-20T10:49:44;0.80;;;0.80;;
37069;SDS011;22984;48.862;9.320;2022-11-20T11:00:08;1.83;;;0.85;;
37069;SDS011;22984;48.862;9.320;2022-11-20T11:07:46;3.88;;;0.85;;
37069;SDS011;22984;48.862;9.320;2022-11-20T11:10:18;2.20;;;0.90;;
37069;SDS011;22984;48.862;9.320;2022-11-20T11:12:47;1.88;;;1.08;;
37069;SDS011;22984;48.862;9.320;2022-11-20T11:17:52;1.17;;;1.00;;
37069;SDS011;22984;48.862;9.320;2022-11-20T11:20:19;2.67;;;1.05;;
37069;SDS011;22984;48.862;9.320;2022-11-20T11:22:55;1.63;;;1.00;;
37069;SDS011;22984;48.862;9.320;2022-11-20T11:25:23;1.92;;;0.90;;
37069;SDS011;22984;48.862;9.320;2022-11-20T11:27:50;0.93;;;0.82;;
37069;SDS011;22984;48.862;9.320;2022-11-20T11:30:17;2.63;;;1.05;;
37069;SDS011;22984;48.862;9.320;2022-11-20T11:32:43;2.00;;;1.27;;
37069;SDS011;22984;48.862;9.320;2022-11-20T11:37:45;0.77;;;0.75;;
37069;SDS011;22984;48.862;9.320;2022-11-20T11:40:12;0.73;;;0.63;;
37069;SDS011;22984;48.862;9.320;2022-11-20T11:42:52;1.58;;;0.85;;
37069;SDS011;22984;48.862;9.320;2022-11-20T11:45:19;1.50;;;1.00;;
37069;SDS011;22984;48.862;9.320;2022-11-20T11:47:46;2.10;;;0.90;;
37069;SDS011;22984;48.862;9.320;2022-11-20T11:50:26;2.97;;;0.85;;
37069;SDS011;22984;48.862;9.320;2022-11-20T11:53:01;1.40;;;0.60;;
37069;SDS011;22984;48.862;9.320;2022-11-20T11:55:40;1.10;;;0.90;;
37069;SDS011;22984;48.862;9.320;2022-11-20T11:58:10;2.03;;;0.90;;
37069;SDS011;22984;48.862;9.320;2022-11-20T12:00:37;1.90;;;0.90;;
37069;SDS011;22984;48.862;9.320;2022-11-20T12:10:48;1.83;;;1.00;;
37069;SDS011;22984;48.862;9.320;2022-11-20T12:13:37;2.70;;;1.10;;
37069;SDS011;22984;48.862;9.320;2022-11-20T12:16:07;2.08;;;1.20;;
37069;SDS011;22984;48.862;9.320;2022-11-20T12:18:36;3.90;;;1.17;;
37069;SDS011;22984;48.862;9.320;2022-11-20T12:24:00;3.35;;;1.40;;
37069;SDS011;22984;48.862;9.320;2022-11-20T12:29:13;1.55;;;0.80;;
37069;SDS011;22984;48.862;9.320;2022-11-20T12:36:49;4.43;;;1.10;;
37069;SDS011;22984;48.862;9.320;2022-11-20T12:39:29;1.90;;;0.63;;
37069;SDS011;22984;48.862;9.320;2022-11-20T12:52:37;1.80;;;1.30;;
37069;SDS011;22984;48.862;9.320;2022-11-20T13:00:11;0.95;;;0.50;;
37069;SDS011;22984;48.862;9.320;2022-11-20T13:05:21;1.20;;;0.40;;
37069;SDS011;22984;48.862;9.320;2022-11-20T13:07:50;2.83;;;0.60;;
37069;SDS011;22984;48.862;9.320;2022-11-20T13:10:23;2.25;;;0.57;;
37069;SDS011;22984;48.862;9.320;2022-11-20T13:12:57;1.95;;;0.43;;
37069;SDS011;22984;48.862;9.320;2022-11-20T13:15:40;1.30;;;0.43;;
37069;SDS011;22984;48.862;9.320;2022-11-20T13:18:10;2.20;;;0.50;;
37069;SDS011;22984;48.862;9.320;2022-11-20T13:20:41;1.27;;;0.30;;
37069;SDS011;22984;48.862;9.320;2022-11-20T13:23:07;2.13;;;0.40;;
37069;SDS011;22984;48.862;9.320;2022-11-20T13:25:34;2.15;;;0.70;;
37069;SDS011;22984;48.862;9.320;2022-11-20T13:28:04;1.35;;;0.40;;
37069;SDS011;22984;48.862;9.320;2022-11-20T13:30:52;3.78;;;0.90;;
37069;SDS011;22984;48.862;9.320;2022-11-20T13:33:23;1.70;;;0.47;;
37069;SDS011;22984;48.862;9.320;2022-11-20T13:35:55;3.60;;;0.40;;
37069;SDS011;22984;48.862;9.320;2022-11-20T13:38:21;2.28;;;0.65;;
37069;SDS011;22984;48.862;9.320;2022-11-20T13:40:51;1.13;;;0.50;;
37069;SDS011;22984;48.862;9.320;2022-11-20T13:46:03;1.55;;;0.50;;
37069;SDS011;22984;48.862;9.320;2022-11-20T13:48:33;1.98;;;0.50;;
37069;SDS011;22984;48.862;9.320;2022-11-20T13:56:14;1.65;;;0.60;;
37069;SDS011;22984;48.862;9.320;2022-11-20T13:58:51;1.90;;;0.52;;
37069;SDS011;22984;48.862;9.320;2022-11-20T14:01:19;2.85;;;0.68;;
37069;SDS011;22984;48.862;9.320;2022-11-20T14:03:46;1.80;;;0.70;;
37069;SDS011;22984;48.862;9.320;2022-11-20T14:08:48;2.08;;;1.13;;
37069;SDS011;22984;48.862;9.320;2022-11-20T14:13:55;2.50;;;0.60;;
37069;SDS011;22984;48.862;9.320;2022-11-20T14:16:22;2.50;;;0.40;;
37069;SDS011;22984;48.862;9.320;2022-11-20T14:18:48;1.90;;;1.10;;
37069;SDS011;22984;48.862;9.320;2022-11-20T14:21:21;1.50;;;0.60;;
37069;SDS011;22984;48.862;9.320;2022-11-20T14:23:47;1.75;;;0.60;;
37069;SDS011;22984;48.862;9.320;2022-11-20T14:26:14;1.15;;;0.50;;
37069;SDS011;22984;48.862;9.320;2022-11-20T14:28:47;1.55;;;0.50;;
37069;SDS011;22984;48.862;9.320;2022-11-20T14:31:16;1.20;;;0.35;;
37069;SDS011;22984;48.862;9.320;2022-11-20T14:33:44;1.10;;;0.70;;
37069;SDS011;22984;48.862;9.320;2022-11-20T14:36:16;1.92;;;0.82;;
37069;SDS011;22984;48.862;9.320;2022-11-20T14:38:43;1.70;;;0.60;;
37069;SDS011;22984;48.862;9.320;2022-11-20T14:41:15;1.42;;;0.70;;
37069;SDS011;22984;48.862;9.320;2022-11-20T14:43:44;1.90;;;1.00;;
37069;SDS011;22984;48.862;9.320;2022-11-20T14:46:11;2.25;;;0.80;;
37069;SDS011;22984;48.862;9.320;2022-11-20T14:48:44;3.42;;;1.23;;
37069;SDS011;22984;48.862;9.320;2022-11-20T14:51:11;1.88;;;0.70;;
37069;SDS011;22984;48.862;9.320;2022-11-20T14:53:37;1.00;;;0.60;;
37069;SDS011;22984;48.862;9.320;2022-11-20T14:56:03;2.88;;;0.82;;
37069;SDS011;22984;48.862;9.320;2022-11-20T14:58:30;2.80;;;1.33;;
37069;SDS011;22984;48.862;9.320;2022-11-20T15:01:02;2.60;;;1.27;;
37069;SDS011;22984;48.862;9.320;2022-11-20T15:03:35;4.70;;;1.50;;
37069;SDS011;22984;48.862;9.320;2022-11-20T15:06:02;1.48;;;1.33;;
37069;SDS011;22984;48.862;9.320;2022-11-20T15:08:28;1.33;;;1.15;;
37069;SDS011;22984;48.862;9.320;2022-11-20T15:10:54;2.38;;;1.50;;
37069;SDS011;22984;48.862;9.320;2022-11-20T15:13:25;2.00;;;1.20;;
37069;SDS011;22984;48.862;9.320;2022-11-20T15:15:53;2.42;;;1.50;;
37069;SDS011;22984;48.862;9.320;2022-11-20T15:18:24;3.13;;;1.40;;
37069;SDS011;22984;48.862;9.320;2022-11-20T15:20:52;2.17;;;1.50;;
37069;SDS011;22984;48.862;9.320;2022-11-20T15:23:19;2.72;;;1.52;;
37069;SDS011;22984;48.862;9.320;2022-11-20T15:25:45;2.83;;;1.42;;
37069;SDS011;22984;48.862;9.320;2022-11-20T15:28:22;3.00;;;1.70;;
37069;SDS011;22984;48.862;9.320;2022-11-20T15:30:51;3.00;;;1.63;;
37069;SDS011;22984;48.862;9.320;2022-11-20T15:33:17;2.50;;;1.53;;
37069;SDS011;22984;48.862;9.320;2022-11-20T15:35:43;3.60;;;1.38;;
37069;SDS011;22984;48.862;9.320;2022-11-20T15:38:09;2.85;;;1.17;;
37069;SDS011;22984;48.862;9.320;2022-11-20T15:40:36;4.13;;;1.67;;
37069;SDS011;22984;48.862;9.320;2022-11-20T15:43:02;4.03;;;2.20;;
37069;SDS011;22984;48.862;9.320;2022-11-20T15:45:33;3.30;;;1.92;;
37069;SDS011;22984;48.862;9.320;2022-11-20T15:48:02;5.53;;;3.90;;
37069;SDS011;22984;48.862;9.320;2022-11-20T15:50:32;2.15;;;2.00;;
37069;SDS011;22984;48.862;9.320;2022-11-20T15:52:59;3.50;;;2.03;;
37069;SDS011;22984;48.862;9.320;2022-11-20T15:55:26;3.83;;;2.22;;
37069;SDS011;22984;48.862;9.320;2022-11-20T15:57:52;6.40;;;4.07;;
37069;SDS011;22984;48.862;9.320;2022-11-20T16:00:18;11.95;;;6.82;;
37069;SDS011;22984;48.862;9.320;2022-11-20T16:02:44;12.75;;;6.82;;
37069;SDS011;22984;48.862;9.320;2022-11-20T16:05:11;7.93;;;4.85;;
37069;SDS011;22984;48.862;9.320;2022-11-20T16:07:37;9.00;;;4.55;;
37069;SDS011;22984;48.862;9.320;2022-11-20T16:10:04;4.45;;;2.70;;
37069;SDS011;22984;48.862;9.320;2022-11-20T16:12:30;13.43;;;7.03;;
37069;SDS011;22984;48.862;9.320;2022-11-20T16:15:14;17.90;;;9.02;;
37069;SDS011;22984;48.862;9.320;2022-11-20T16:18:17;11.73;;;6.57;;
37069;SDS011;22984;48.862;9.320;2022-11-20T16:20:44;10.25;;;6.10;;
37069;SDS011;22984;48.862;9.320;2022-11-20T16:23:10;9.93;;;8.27;;
37069;SDS011;22984;48.862;9.320;2022-11-20T16:25:37;2.50;;;2.30;;
37069;SDS011;22984;48.862;9.320;2022-11-20T16:28:03;3.17;;;2.90;;
37069;SDS011;22984;48.862;9.320;2022-11-20T16:30:30;2.40;;;2.20;;
37069;SDS011;22984;48.862;9.320;2022-11-20T16:32:57;3.38;;;2.13;;
37069;SDS011;22984;48.862;9.320;2022-11-20T16:35:23;3.38;;;3.08;;
37069;SDS011;22984;48.862;9.320;2022-11-20T16:37:51;4.70;;;4.23;;
37069;SDS011;22984;48.862;9.320;2022-11-20T16:40:17;4.18;;;2.55;;